createdAt,value
2018-09-28T00:00:00.413Z,3.50
2018-09-28T00:02:28.515Z,3.60
2018-09-28T00:04:56.590Z,4.12
2018-09-28T00:07:24.716Z,3.90
2018-09-28T00:09:52.894Z,3.87
2018-09-28T00:12:20.995Z,4.22
2018-09-28T00:14:49.095Z,3.67
2018-09-28T00:17:17.254Z,3.70
2018-09-28T00:19:45.354Z,3.65
2018-09-28T00:22:13.512Z,3.70
2018-09-28T00:24:41.746Z,2.65
2018-09-28T00:27:09.926Z,2.83
2018-09-28T00:29:38.118Z,2.92
2018-09-28T00:32:06.636Z,3.10
2018-09-28T00:34:34.819Z,3.40
2018-09-28T00:37:03.015Z,3.15
2018-09-28T00:39:31.439Z,3.10
2018-09-28T00:41:59.634Z,3.58
2018-09-28T00:44:27.839Z,2.92
2018-09-28T00:46:56.016Z,2.90
2018-09-28T00:49:24.236Z,3.35
2018-09-28T00:51:52.414Z,3.02
2018-09-28T00:54:20.626Z,2.65
2018-09-28T00:56:48.809Z,2.92
2018-09-28T00:59:17.034Z,2.90
2018-09-28T01:01:45.209Z,2.67
2018-09-28T01:04:13.417Z,3.05
2018-09-28T01:06:41.626Z,3.25
2018-09-28T01:09:12.144Z,2.95
2018-09-28T01:11:41.286Z,3.35
2018-09-28T01:14:09.729Z,3.12
2018-09-28T01:16:37.902Z,3.20
2018-09-28T01:19:06.362Z,3.30
2018-09-28T01:21:34.605Z,3.40
2018-09-28T01:24:02.789Z,3.20
2018-09-28T01:26:30.983Z,2.98
2018-09-28T01:28:59.083Z,3.52
2018-09-28T01:31:28.326Z,3.30
2018-09-28T01:33:56.554Z,3.05
2018-09-28T01:36:24.702Z,2.90
2018-09-28T01:38:52.823Z,3.02
2018-09-28T01:41:21.931Z,2.77
2018-09-28T01:43:50.136Z,3.17
2018-09-28T01:46:18.327Z,2.60
2018-09-28T01:48:46.438Z,2.87
2018-09-28T01:51:14.638Z,3.12
2018-09-28T01:53:42.833Z,2.90
2018-09-28T01:56:10.907Z,2.67
2018-09-28T01:58:39.010Z,2.83
2018-09-28T02:01:07.378Z,3.00
2018-09-28T02:03:35.567Z,2.92
2018-09-28T02:06:03.835Z,3.02
2018-09-28T02:08:32.023Z,2.83
2018-09-28T02:11:00.119Z,3.42
2018-09-28T02:13:28.207Z,3.22
2018-09-28T02:15:56.367Z,2.90
2018-09-28T02:18:24.402Z,2.90
2018-09-28T02:20:52.486Z,2.72
2018-09-28T02:23:20.601Z,3.02
2018-09-28T02:25:48.676Z,2.92
2018-09-28T02:28:16.806Z,2.72
2018-09-28T02:30:44.992Z,3.40
2018-09-28T02:33:13.096Z,3.20
2018-09-28T02:35:41.278Z,2.80
2018-09-28T02:38:09.366Z,3.90
2018-09-28T02:40:37.465Z,3.40
2018-09-28T02:43:05.570Z,2.90
2018-09-28T02:45:33.662Z,2.90
2018-09-28T02:48:01.772Z,3.40
2018-09-28T02:50:29.862Z,3.20
2018-09-28T02:52:57.982Z,2.85
2018-09-28T02:55:26.184Z,2.90
2018-09-28T02:57:54.349Z,2.42
2018-09-28T03:00:22.462Z,2.60
2018-09-28T03:02:50.559Z,2.70
2018-09-28T03:05:18.653Z,2.70
2018-09-28T03:07:46.750Z,2.70
2018-09-28T03:10:14.871Z,2.90
2018-09-28T03:12:43.046Z,2.87
2018-09-28T03:15:11.146Z,3.95
2018-09-28T03:17:39.247Z,3.20
2018-09-28T03:20:07.581Z,3.10
2018-09-28T03:22:36.279Z,3.62
2018-09-28T03:25:04.538Z,3.30
2018-09-28T03:27:32.637Z,3.12
2018-09-28T03:30:00.747Z,3.45
2018-09-28T03:32:28.844Z,3.67
2018-09-28T03:34:56.959Z,3.37
2018-09-28T03:37:25.034Z,3.30
2018-09-28T03:39:53.162Z,3.37
2018-09-28T03:42:21.328Z,3.12
2018-09-28T03:44:49.490Z,15.23
2018-09-28T03:47:17.654Z,4.50
2018-09-28T03:49:45.852Z,3.40
2018-09-28T03:52:13.924Z,3.58
2018-09-28T03:54:42.029Z,3.20
2018-09-28T03:57:10.134Z,3.12
2018-09-28T03:59:38.228Z,3.62
2018-09-28T04:02:06.310Z,2.80
2018-09-28T04:04:34.426Z,2.87
2018-09-28T04:07:02.519Z,2.83
2018-09-28T04:09:30.601Z,2.92
2018-09-28T04:11:58.717Z,3.05
2018-09-28T04:14:26.794Z,3.05
2018-09-28T04:16:54.933Z,2.98
2018-09-28T04:19:23.234Z,3.37
2018-09-28T04:21:56.977Z,2.85
2018-09-28T04:24:25.146Z,3.37
2018-09-28T04:26:53.242Z,2.95
2018-09-28T04:29:21.330Z,2.83
2018-09-28T04:31:49.434Z,3.50
2018-09-28T04:34:17.542Z,3.42
2018-09-28T04:36:45.749Z,3.20
2018-09-28T04:39:13.923Z,3.08
2018-09-28T04:41:42.063Z,3.05
2018-09-28T04:44:10.455Z,3.22
2018-09-28T04:46:38.758Z,3.12
2018-09-28T04:49:07.263Z,2.67
2018-09-28T04:51:36.359Z,3.20
2018-09-28T04:54:04.681Z,3.08
2018-09-28T04:56:32.872Z,3.70
2018-09-28T04:59:01.055Z,3.08
2018-09-28T05:01:29.166Z,3.55
2018-09-28T05:03:57.361Z,4.00
2018-09-28T05:06:25.470Z,3.87
2018-09-28T05:08:53.658Z,4.58
2018-09-28T05:11:22.795Z,4.50
2018-09-28T05:13:50.975Z,4.05
2018-09-28T05:16:19.094Z,3.98
2018-09-28T05:18:47.278Z,4.30
2018-09-28T05:21:16.411Z,4.30
2018-09-28T05:23:44.600Z,4.35
2018-09-28T05:26:12.919Z,4.12
2018-09-28T05:28:41.111Z,4.45
2018-09-28T05:31:09.455Z,4.17
2018-09-28T05:33:37.597Z,4.20
2018-09-28T05:36:05.817Z,3.92
2018-09-28T05:38:33.990Z,4.35
2018-09-28T05:41:02.103Z,4.17
2018-09-28T05:43:30.190Z,4.70
2018-09-28T05:45:58.306Z,4.05
2018-09-28T05:48:26.488Z,4.62
2018-09-28T05:50:54.591Z,4.75
2018-09-28T05:53:22.791Z,4.03
2018-09-28T05:55:50.873Z,4.28
2018-09-28T05:58:24.645Z,4.33
2018-09-28T06:00:58.313Z,4.50
2018-09-28T06:03:26.438Z,4.58
2018-09-28T06:05:57.419Z,4.67
2018-09-28T06:08:25.615Z,5.10
2018-09-28T06:10:53.804Z,4.10
2018-09-28T06:13:22.348Z,4.53
2018-09-28T06:15:50.733Z,3.47
2018-09-28T06:18:18.905Z,3.85
2018-09-28T06:20:47.356Z,3.83
2018-09-28T06:23:15.628Z,3.95
2018-09-28T06:25:43.976Z,3.50
2018-09-28T06:28:12.178Z,3.87
2018-09-28T06:30:40.451Z,3.77
2018-09-28T06:33:08.614Z,3.90
2018-09-28T06:35:36.739Z,4.08
2018-09-28T06:38:04.805Z,4.25
2018-09-28T06:40:32.894Z,4.17
2018-09-28T06:43:01.014Z,3.72
2018-09-28T06:45:29.102Z,4.28
2018-09-28T06:47:57.311Z,6.17
2018-09-28T06:50:25.390Z,4.90
2018-09-28T06:52:53.644Z,5.58
2018-09-28T06:55:21.789Z,6.10
2018-09-28T06:57:49.870Z,5.90
2018-09-28T07:00:18.060Z,6.22
2018-09-28T07:02:46.114Z,5.83
2018-09-28T07:05:14.293Z,5.78
2018-09-28T07:07:42.390Z,5.65
2018-09-28T07:10:10.510Z,6.10
2018-09-28T07:12:38.698Z,5.10
2018-09-28T07:15:06.896Z,5.70
2018-09-28T07:17:35.105Z,5.75
2018-09-28T07:20:03.304Z,6.60
2018-09-28T07:22:31.439Z,5.92
2018-09-28T07:24:59.665Z,5.50
2018-09-28T07:27:27.799Z,5.55
2018-09-28T07:29:56.096Z,5.75
2018-09-28T07:32:24.186Z,5.62
2018-09-28T07:34:52.297Z,8.13
2018-09-28T07:37:20.603Z,8.55
2018-09-28T07:39:48.791Z,8.05
2018-09-28T07:42:17.019Z,8.05
2018-09-28T07:44:45.021Z,7.75
2018-09-28T07:47:13.194Z,8.83
2018-09-28T07:49:41.438Z,7.92
2018-09-28T07:52:09.583Z,7.67
2018-09-28T07:54:37.688Z,9.30
2018-09-28T07:57:05.902Z,10.23
2018-09-28T07:59:34.089Z,11.03
2018-09-28T08:02:02.286Z,11.70
2018-09-28T08:04:30.503Z,11.65
2018-09-28T08:06:58.625Z,12.73
2018-09-28T08:09:26.814Z,12.20
2018-09-28T08:11:54.982Z,12.63
2018-09-28T08:14:23.198Z,12.07
2018-09-28T08:16:51.365Z,12.03
2018-09-28T08:19:19.486Z,11.63
2018-09-28T08:21:47.667Z,12.13
2018-09-28T08:24:15.810Z,13.45
2018-09-28T08:26:43.998Z,14.93
2018-09-28T08:29:12.167Z,14.47
2018-09-28T08:31:40.290Z,14.58
2018-09-28T08:34:08.465Z,13.85
2018-09-28T08:36:36.662Z,14.45
2018-09-28T08:39:06.794Z,13.72
2018-09-28T08:41:34.905Z,13.53
2018-09-28T08:44:03.007Z,13.53
2018-09-28T08:46:31.109Z,12.60
2018-09-28T08:48:59.306Z,13.58
2018-09-28T08:51:27.506Z,14.18
2018-09-28T08:53:55.639Z,12.85
2018-09-28T08:56:23.794Z,14.43
2018-09-28T08:58:51.898Z,13.38
2018-09-28T09:01:19.997Z,13.85
2018-09-28T09:03:48.112Z,13.13
2018-09-28T09:06:16.283Z,12.28
2018-09-28T09:08:44.381Z,12.95
2018-09-28T09:11:13.070Z,13.98
2018-09-28T09:13:41.149Z,14.63
2018-09-28T09:16:09.289Z,15.83
2018-09-28T09:18:37.518Z,17.27
2018-09-28T09:21:05.726Z,14.68
2018-09-28T09:23:33.929Z,15.95
2018-09-28T09:26:02.102Z,17.77
2018-09-28T09:28:30.524Z,17.95
2018-09-28T09:30:58.714Z,16.67
2018-09-28T09:33:26.929Z,16.77
2018-09-28T09:35:55.106Z,15.78
2018-09-28T09:38:23.302Z,16.70
2018-09-28T09:40:51.513Z,14.50
2018-09-28T09:43:19.826Z,14.65
2018-09-28T09:45:48.007Z,14.60
2018-09-28T09:48:16.214Z,13.60
2018-09-28T09:50:44.454Z,13.80
2018-09-28T09:53:12.631Z,13.30
2018-09-28T09:55:40.872Z,12.60
2018-09-28T09:58:09.046Z,14.30
2018-09-28T10:00:42.473Z,13.25
2018-09-28T10:03:16.042Z,13.15
2018-09-28T10:05:44.149Z,13.10
2018-09-28T10:08:12.378Z,12.40
2018-09-28T10:10:40.554Z,14.40
2018-09-28T10:13:08.754Z,12.88
2018-09-28T10:15:36.961Z,11.93
2018-09-28T10:18:05.142Z,12.33
2018-09-28T10:20:33.335Z,13.28
2018-09-28T10:23:01.476Z,12.40
2018-09-28T10:25:29.641Z,10.60
2018-09-28T10:27:58.186Z,11.08
2018-09-28T10:30:26.346Z,9.85
2018-09-28T10:32:54.538Z,9.58
2018-09-28T10:35:22.654Z,8.98
2018-09-28T10:37:50.838Z,9.13
2018-09-28T10:40:18.946Z,9.78
2018-09-28T10:42:47.031Z,8.88
2018-09-28T10:45:15.199Z,8.85
2018-09-28T10:47:43.340Z,8.98
2018-09-28T10:50:11.574Z,9.00
2018-09-28T10:52:39.701Z,8.35
2018-09-28T10:55:07.826Z,8.40
2018-09-28T10:57:36.023Z,7.50
2018-09-28T11:00:04.290Z,8.45
2018-09-28T11:02:32.383Z,8.85
2018-09-28T11:05:00.538Z,8.68
2018-09-28T11:07:28.625Z,9.20
2018-09-28T11:09:56.722Z,10.32
2018-09-28T11:12:24.818Z,10.00
2018-09-28T11:14:52.890Z,9.78
2018-09-28T11:17:20.990Z,9.43
2018-09-28T11:19:49.080Z,8.50
2018-09-28T11:22:17.195Z,8.48
2018-09-28T11:24:45.281Z,8.65
2018-09-28T11:27:13.393Z,7.97
2018-09-28T11:29:41.446Z,8.13
2018-09-28T11:32:09.725Z,8.68
2018-09-28T11:34:37.798Z,7.83
2018-09-28T11:37:05.890Z,8.58
2018-09-28T11:39:33.964Z,9.18
2018-09-28T11:42:02.048Z,10.38
2018-09-28T11:44:30.131Z,9.58
2018-09-28T11:46:58.210Z,11.08
2018-09-28T11:49:26.331Z,11.60
2018-09-28T11:51:54.432Z,12.20
2018-09-28T11:54:22.534Z,12.73
2018-09-28T11:56:50.658Z,13.62
2018-09-28T11:59:18.746Z,15.50
2018-09-28T12:01:46.841Z,15.08
2018-09-28T12:04:14.926Z,14.00
2018-09-28T12:06:43.203Z,11.38
2018-09-28T12:09:12.876Z,11.38
2018-09-28T12:11:42.654Z,10.20
2018-09-28T12:14:10.731Z,9.30
2018-09-28T12:16:38.839Z,8.48
2018-09-28T12:19:06.944Z,8.53
2018-09-28T12:21:36.059Z,7.55
2018-09-28T12:24:04.142Z,6.75
2018-09-28T12:26:32.218Z,6.50
2018-09-28T12:29:00.767Z,5.17
2018-09-28T12:31:29.846Z,4.90
2018-09-28T12:33:57.942Z,4.53
2018-09-28T12:36:26.027Z,4.72
2018-09-28T12:38:54.101Z,4.35
2018-09-28T12:41:23.272Z,3.67
2018-09-28T12:43:51.354Z,4.22
2018-09-28T12:46:19.431Z,3.75
2018-09-28T12:48:47.586Z,3.62
2018-09-28T12:51:16.693Z,3.12
2018-09-28T12:53:44.856Z,3.08
2018-09-28T12:56:12.872Z,2.77
2018-09-28T12:58:40.959Z,2.20
2018-09-28T13:01:09.253Z,2.83
2018-09-28T13:03:37.126Z,2.55
2018-09-28T13:06:05.211Z,1.98
2018-09-28T13:08:38.576Z,2.08
2018-09-28T13:11:06.831Z,1.85
2018-09-28T13:13:34.993Z,2.15
2018-09-28T13:16:03.210Z,1.65
2018-09-28T13:18:31.460Z,1.82
2018-09-28T13:21:00.401Z,1.90
2018-09-28T13:23:28.523Z,2.20
2018-09-28T13:25:56.710Z,2.45
2018-09-28T13:28:24.898Z,1.92
2018-09-28T13:30:53.011Z,2.50
2018-09-28T13:33:21.105Z,2.67
2018-09-28T13:35:49.177Z,3.20
2018-09-28T13:38:17.409Z,3.75
2018-09-28T13:40:45.485Z,3.52
2018-09-28T13:43:13.827Z,4.65
2018-09-28T13:45:41.985Z,4.97
2018-09-28T13:48:10.146Z,6.05
2018-09-28T13:50:38.362Z,6.80
2018-09-28T13:53:06.511Z,6.28
2018-09-28T13:55:34.710Z,6.03
2018-09-28T13:58:02.870Z,5.12
2018-09-28T14:00:31.060Z,4.60
2018-09-28T14:02:59.183Z,5.08
2018-09-28T14:05:27.290Z,5.25
2018-09-28T14:07:55.486Z,5.83
2018-09-28T14:10:23.805Z,5.33
2018-09-28T14:12:51.772Z,6.45
2018-09-28T14:15:19.886Z,6.30
2018-09-28T14:17:48.081Z,6.30
2018-09-28T14:20:16.229Z,7.35
2018-09-28T14:22:44.308Z,7.58
2018-09-28T14:25:12.511Z,7.30
2018-09-28T14:27:40.687Z,7.53
2018-09-28T14:30:08.896Z,6.75
2018-09-28T14:32:37.141Z,6.97
2018-09-28T14:35:05.398Z,5.62
2018-09-28T14:37:33.608Z,7.47
2018-09-28T14:40:01.782Z,8.30
2018-09-28T14:42:30.034Z,8.23
2018-09-28T14:44:58.182Z,9.28
2018-09-28T14:47:26.361Z,7.42
2018-09-28T14:49:54.482Z,6.70
2018-09-28T14:52:22.674Z,6.50
2018-09-28T14:54:50.850Z,6.47
2018-09-28T14:57:18.969Z,6.33
2018-09-28T14:59:47.078Z,6.75
2018-09-28T15:02:15.267Z,6.62
2018-09-28T15:04:43.437Z,6.10
2018-09-28T15:07:11.587Z,6.12
2018-09-28T15:09:39.815Z,5.65
2018-09-28T15:12:08.011Z,6.45
2018-09-28T15:14:36.179Z,5.95
2018-09-28T15:17:04.350Z,5.12
2018-09-28T15:19:32.483Z,4.87
2018-09-28T15:22:00.639Z,4.67
2018-09-28T15:24:28.750Z,4.00
2018-09-28T15:26:56.843Z,3.42
2018-09-28T15:29:24.950Z,3.30
2018-09-28T15:31:53.038Z,3.30
2018-09-28T15:34:21.133Z,2.75
2018-09-28T15:36:49.234Z,2.80
2018-09-28T15:39:17.331Z,3.62
2018-09-28T15:41:45.429Z,3.08
2018-09-28T15:44:13.506Z,3.27
2018-09-28T15:46:41.622Z,4.25
2018-09-28T15:49:09.719Z,3.05
2018-09-28T15:51:37.833Z,2.58
2018-09-28T15:54:06.011Z,3.02
2018-09-28T15:56:34.162Z,2.67
2018-09-28T15:59:02.310Z,2.50
2018-09-28T16:01:30.418Z,2.60
2018-09-28T16:03:58.594Z,2.90
2018-09-28T16:06:26.770Z,2.70
2018-09-28T16:08:55.276Z,2.35
2018-09-28T16:11:23.367Z,2.80
2018-09-28T16:13:51.458Z,3.30
2018-09-28T16:16:19.690Z,2.60
2018-09-28T16:18:48.046Z,2.70
2018-09-28T16:21:17.131Z,2.67
2018-09-28T16:23:45.330Z,2.22
2018-09-28T16:26:13.536Z,2.67
2018-09-28T16:28:41.787Z,2.10
2018-09-28T16:31:10.117Z,2.85
2018-09-28T16:33:38.268Z,2.30
2018-09-28T16:36:06.468Z,2.45
2018-09-28T16:38:34.659Z,1.92
2018-09-28T16:41:02.842Z,2.15
2018-09-28T16:43:31.034Z,1.98
2018-09-28T16:45:59.229Z,2.00
2018-09-28T16:48:27.440Z,1.77
2018-09-28T16:50:55.642Z,1.90
2018-09-28T16:53:23.837Z,1.90
2018-09-28T16:55:52.058Z,1.75
2018-09-28T16:58:20.297Z,1.92
2018-09-28T17:00:48.437Z,2.00
2018-09-28T17:03:16.654Z,2.58
2018-09-28T17:05:44.846Z,1.80
2018-09-28T17:08:13.250Z,2.35
2018-09-28T17:10:41.458Z,1.87
2018-09-28T17:13:09.625Z,1.85
2018-09-28T17:15:37.754Z,1.65
2018-09-28T17:18:06.210Z,2.27
2018-09-28T17:20:34.396Z,1.50
2018-09-28T17:23:02.557Z,2.62
2018-09-28T17:25:30.752Z,4.03
2018-09-28T17:27:58.959Z,2.25
2018-09-28T17:30:27.066Z,2.17
2018-09-28T17:32:55.245Z,2.15
2018-09-28T17:35:23.462Z,1.35
2018-09-28T17:37:51.630Z,1.65
2018-09-28T17:40:19.737Z,1.52
2018-09-28T17:42:47.858Z,1.75
2018-09-28T17:45:16.045Z,1.60
2018-09-28T17:47:45.173Z,2.00
2018-09-28T17:50:13.383Z,1.45
2018-09-28T17:52:41.466Z,4.03
2018-09-28T17:55:09.567Z,1.80
2018-09-28T17:57:37.688Z,1.67
2018-09-28T18:00:05.880Z,2.17
2018-09-28T18:02:33.978Z,1.80
2018-09-28T18:05:02.078Z,1.70
2018-09-28T18:07:30.186Z,2.20
2018-09-28T18:09:58.261Z,1.42
2018-09-28T18:12:26.362Z,1.50
2018-09-28T18:14:54.445Z,2.00
2018-09-28T18:17:22.555Z,2.10
2018-09-28T18:19:50.638Z,4.53
2018-09-28T18:22:18.799Z,4.72
2018-09-28T18:24:46.853Z,3.02
2018-09-28T18:27:15.039Z,2.22
2018-09-28T18:29:43.075Z,1.80
2018-09-28T18:32:11.166Z,2.52
2018-09-28T18:34:39.287Z,2.98
2018-09-28T18:37:07.677Z,2.75
2018-09-28T18:39:35.746Z,2.35
2018-09-28T18:42:03.916Z,2.22
2018-09-28T18:44:31.958Z,2.12
2018-09-28T18:47:00.168Z,2.10
2018-09-28T18:49:28.258Z,1.92
2018-09-28T18:51:56.352Z,2.17
2018-09-28T18:54:24.442Z,2.37
2018-09-28T18:56:52.538Z,2.75
2018-09-28T18:59:20.630Z,2.62
2018-09-28T19:01:49.018Z,2.83
2018-09-28T19:04:17.161Z,3.22
2018-09-28T19:06:45.276Z,2.60
2018-09-28T19:09:13.517Z,2.75
2018-09-28T19:11:42.122Z,2.50
2018-09-28T19:14:10.254Z,2.60
2018-09-28T19:16:38.357Z,3.00
2018-09-28T19:19:06.438Z,2.67
2018-09-28T19:21:34.593Z,3.15
2018-09-28T19:24:02.630Z,3.35
2018-09-28T19:26:30.722Z,2.70
2018-09-28T19:28:58.814Z,2.42
2018-09-28T19:31:26.932Z,2.30
2018-09-28T19:33:55.030Z,2.00
2018-09-28T19:36:23.127Z,2.25
2018-09-28T19:38:51.210Z,2.00
2018-09-28T19:41:20.395Z,2.42
2018-09-28T19:43:48.499Z,2.37
2018-09-28T19:46:16.610Z,2.37
2018-09-28T19:48:44.702Z,2.25
2018-09-28T19:51:12.805Z,2.65
2018-09-28T19:53:40.886Z,3.22
2018-09-28T19:56:09.086Z,3.27
2018-09-28T19:58:37.186Z,2.87
2018-09-28T20:01:05.273Z,2.30
2018-09-28T20:03:33.369Z,2.75
2018-09-28T20:06:01.613Z,2.25
2018-09-28T20:08:29.690Z,2.58
2018-09-28T20:10:57.858Z,3.02
2018-09-28T20:13:26.058Z,2.77
2018-09-28T20:15:54.122Z,2.25
2018-09-28T20:18:22.231Z,2.72
2018-09-28T20:20:50.350Z,2.50
2018-09-28T20:23:18.494Z,2.22
2018-09-28T20:25:46.586Z,2.52
2018-09-28T20:28:14.748Z,2.60
2018-09-28T20:30:42.821Z,2.20
2018-09-28T20:33:10.918Z,2.52
2018-09-28T20:35:42.314Z,2.42
2018-09-28T20:38:11.208Z,2.42
2018-09-28T20:40:39.270Z,2.25
2018-09-28T20:43:07.369Z,2.40
2018-09-28T20:45:35.541Z,3.15
2018-09-28T20:48:03.631Z,2.72
2018-09-28T20:50:31.733Z,2.45
2018-09-28T20:52:59.838Z,2.75
2018-09-28T20:55:28.004Z,2.08
2018-09-28T20:57:56.034Z,2.37
2018-09-28T21:00:24.198Z,1.70
2018-09-28T21:02:52.278Z,2.20
2018-09-28T21:05:20.363Z,2.30
2018-09-28T21:07:48.458Z,2.35
2018-09-28T21:10:16.542Z,2.70
2018-09-28T21:12:44.617Z,2.55
2018-09-28T21:15:12.726Z,2.27
2018-09-28T21:17:40.895Z,2.85
2018-09-28T21:20:08.990Z,2.45
2018-09-28T21:22:37.106Z,2.50
2018-09-28T21:25:05.313Z,2.98
2018-09-28T21:27:33.510Z,2.50
2018-09-28T21:30:01.818Z,2.60
2018-09-28T21:32:29.977Z,2.67
2018-09-28T21:34:58.078Z,2.37
2018-09-28T21:37:26.183Z,2.40
2018-09-28T21:39:54.301Z,2.50
2018-09-28T21:42:22.475Z,2.30
2018-09-28T21:44:50.562Z,2.55
2018-09-28T21:47:18.677Z,3.10
2018-09-28T21:49:46.909Z,1.82
2018-09-28T21:52:15.072Z,2.67
2018-09-28T21:54:43.374Z,2.15
2018-09-28T21:57:11.599Z,2.17
2018-09-28T21:59:40.217Z,1.95
2018-09-28T22:02:08.382Z,2.70
2018-09-28T22:04:36.791Z,1.85
2018-09-28T22:07:04.884Z,2.40
2018-09-28T22:09:33.115Z,1.92
2018-09-28T22:12:01.277Z,1.85
2018-09-28T22:14:29.350Z,2.17
2018-09-28T22:16:57.474Z,2.20
2018-09-28T22:19:26.619Z,2.05
2018-09-28T22:21:54.790Z,2.02
2018-09-28T22:24:22.926Z,2.00
2018-09-28T22:26:51.078Z,1.90
2018-09-28T22:29:19.198Z,1.90
2018-09-28T22:31:47.285Z,2.65
2018-09-28T22:34:15.415Z,2.10
2018-09-28T22:36:43.581Z,1.52
2018-09-28T22:39:12.442Z,2.12
2018-09-28T22:41:41.618Z,2.00
2018-09-28T22:44:10.221Z,2.50
2018-09-28T22:46:38.666Z,2.20
2018-09-28T22:49:06.846Z,2.35
2018-09-28T22:51:35.946Z,2.40
2018-09-28T22:54:04.067Z,1.90
2018-09-28T22:56:32.242Z,2.08
2018-09-28T22:59:00.357Z,1.70
2018-09-28T23:01:28.529Z,1.75
2018-09-28T23:03:56.645Z,2.22
2018-09-28T23:06:24.747Z,1.92
2018-09-28T23:08:52.830Z,1.98
2018-09-28T23:11:20.938Z,2.08
2018-09-28T23:13:49.023Z,1.70
2018-09-28T23:16:17.138Z,2.30
2018-09-28T23:18:45.218Z,1.52
2018-09-28T23:21:14.438Z,1.92
2018-09-28T23:23:42.536Z,2.00
2018-09-28T23:26:10.646Z,1.92
2018-09-28T23:28:38.813Z,1.50
2018-09-28T23:31:06.949Z,2.00
2018-09-28T23:33:35.050Z,1.65
2018-09-28T23:36:03.255Z,1.92
2018-09-28T23:38:31.452Z,1.62
2018-09-28T23:40:59.656Z,2.08
2018-09-28T23:43:27.838Z,1.87
2018-09-28T23:45:55.954Z,1.57
2018-09-28T23:48:24.138Z,1.55
2018-09-28T23:50:52.245Z,1.40
2018-09-28T23:53:20.439Z,1.62
2018-09-28T23:55:48.545Z,1.20
2018-09-28T23:58:16.768Z,1.60
